sensor_id;sensor_type;location;lat;lon;timestamp;P1;durP1;ratioP1;P2;durP2;ratioP2
82186;SDS011;71776;52.042;8.160;2023-08-07T00:01:18;4.10;;;1.75;;
82186;SDS011;71776;52.042;8.160;2023-08-07T00:03:43;3.05;;;1.60;;
82186;SDS011;71776;52.042;8.160;2023-08-07T00:06:10;6.72;;;1.67;;
82186;SDS011;71776;52.042;8.160;2023-08-07T00:08:36;6.57;;;1.65;;
82186;SDS011;71776;52.042;8.160;2023-08-07T00:11:04;3.85;;;1.67;;
82186;SDS011;71776;52.042;8.160;2023-08-07T00:13:30;5.70;;;1.70;;
82186;SDS011;71776;52.042;8.160;2023-08-07T00:15:56;3.25;;;1.67;;
82186;SDS011;71776;52.042;8.160;2023-08-07T00:18:21;3.63;;;1.90;;
82186;SDS011;71776;52.042;8.160;2023-08-07T00:20:47;3.05;;;1.65;;
82186;SDS011;71776;52.042;8.160;2023-08-07T00:23:15;3.17;;;1.20;;
82186;SDS011;71776;52.042;8.160;2023-08-07T00:25:40;2.67;;;1.65;;
82186;SDS011;71776;52.042;8.160;2023-08-07T00:28:06;6.45;;;2.05;;
82186;SDS011;71776;52.042;8.160;2023-08-07T00:30:31;2.97;;;1.40;;
82186;SDS011;71776;52.042;8.160;2023-08-07T00:32:57;4.35;;;2.10;;
82186;SDS011;71776;52.042;8.160;2023-08-07T00:35:22;6.90;;;1.75;;
82186;SDS011;71776;52.042;8.160;2023-08-07T00:37:48;5.10;;;2.55;;
82186;SDS011;71776;52.042;8.160;2023-08-07T00:40:16;4.28;;;1.98;;
82186;SDS011;71776;52.042;8.160;2023-08-07T00:42:42;4.28;;;1.88;;
82186;SDS011;71776;52.042;8.160;2023-08-07T00:45:08;2.70;;;1.55;;
82186;SDS011;71776;52.042;8.160;2023-08-07T00:47:34;2.47;;;1.42;;
82186;SDS011;71776;52.042;8.160;2023-08-07T00:50:00;3.97;;;1.65;;
82186;SDS011;71776;52.042;8.160;2023-08-07T00:52:28;4.93;;;2.15;;
82186;SDS011;71776;52.042;8.160;2023-08-07T00:54:54;2.95;;;2.40;;
82186;SDS011;71776;52.042;8.160;2023-08-07T00:57:21;6.57;;;2.50;;
82186;SDS011;71776;52.042;8.160;2023-08-07T00:59:47;4.97;;;1.65;;
82186;SDS011;71776;52.042;8.160;2023-08-07T01:02:13;7.28;;;2.03;;
82186;SDS011;71776;52.042;8.160;2023-08-07T01:04:41;4.65;;;2.05;;
82186;SDS011;71776;52.042;8.160;2023-08-07T01:07:07;4.32;;;2.40;;
82186;SDS011;71776;52.042;8.160;2023-08-07T01:09:32;4.30;;;2.10;;
82186;SDS011;71776;52.042;8.160;2023-08-07T01:12:01;4.63;;;2.20;;
82186;SDS011;71776;52.042;8.160;2023-08-07T01:14:37;2.28;;;1.90;;
82186;SDS011;71776;52.042;8.160;2023-08-07T01:17:07;3.50;;;2.55;;
82186;SDS011;71776;52.042;8.160;2023-08-07T01:19:36;5.55;;;2.30;;
82186;SDS011;71776;52.042;8.160;2023-08-07T01:22:07;4.13;;;2.25;;
82186;SDS011;71776;52.042;8.160;2023-08-07T01:27:00;4.13;;;2.33;;
82186;SDS011;71776;52.042;8.160;2023-08-07T01:29:33;4.47;;;2.20;;
82186;SDS011;71776;52.042;8.160;2023-08-07T01:32:05;7.55;;;2.85;;
82186;SDS011;71776;52.042;8.160;2023-08-07T01:34:34;4.45;;;2.70;;
82186;SDS011;71776;52.042;8.160;2023-08-07T01:37:02;5.65;;;3.13;;
82186;SDS011;71776;52.042;8.160;2023-08-07T01:39:29;2.88;;;2.65;;
82186;SDS011;71776;52.042;8.160;2023-08-07T01:41:56;6.47;;;3.50;;
82186;SDS011;71776;52.042;8.160;2023-08-07T01:44:22;4.50;;;3.00;;
82186;SDS011;71776;52.042;8.160;2023-08-07T01:46:48;5.55;;;2.78;;
82186;SDS011;71776;52.042;8.160;2023-08-07T01:49:13;3.95;;;2.65;;
82186;SDS011;71776;52.042;8.160;2023-08-07T01:51:39;4.35;;;2.72;;
82186;SDS011;71776;52.042;8.160;2023-08-07T01:54:04;6.90;;;2.85;;
82186;SDS011;71776;52.042;8.160;2023-08-07T01:56:31;5.65;;;2.90;;
82186;SDS011;71776;52.042;8.160;2023-08-07T01:58:56;6.50;;;3.10;;
82186;SDS011;71776;52.042;8.160;2023-08-07T02:01:22;4.95;;;2.75;;
82186;SDS011;71776;52.042;8.160;2023-08-07T02:03:48;4.88;;;3.00;;
82186;SDS011;71776;52.042;8.160;2023-08-07T02:06:13;5.88;;;3.05;;
82186;SDS011;71776;52.042;8.160;2023-08-07T02:08:38;6.03;;;3.65;;
82186;SDS011;71776;52.042;8.160;2023-08-07T02:11:04;6.03;;;3.15;;
82186;SDS011;71776;52.042;8.160;2023-08-07T02:13:31;4.82;;;3.00;;
82186;SDS011;71776;52.042;8.160;2023-08-07T02:15:56;3.40;;;3.10;;
82186;SDS011;71776;52.042;8.160;2023-08-07T02:18:22;4.32;;;3.92;;
82186;SDS011;71776;52.042;8.160;2023-08-07T02:20:47;6.43;;;3.60;;
82186;SDS011;71776;52.042;8.160;2023-08-07T02:23:13;7.10;;;4.40;;
82186;SDS011;71776;52.042;8.160;2023-08-07T02:25:38;3.65;;;3.40;;
82186;SDS011;71776;52.042;8.160;2023-08-07T02:28:04;7.35;;;4.13;;
82186;SDS011;71776;52.042;8.160;2023-08-07T02:30:31;3.78;;;3.33;;
82186;SDS011;71776;52.042;8.160;2023-08-07T02:32:57;3.90;;;3.50;;
82186;SDS011;71776;52.042;8.160;2023-08-07T02:35:22;5.88;;;3.42;;
82186;SDS011;71776;52.042;8.160;2023-08-07T02:37:48;5.00;;;3.78;;
82186;SDS011;71776;52.042;8.160;2023-08-07T02:40:13;4.93;;;3.55;;
82186;SDS011;71776;52.042;8.160;2023-08-07T02:42:39;4.40;;;3.75;;
82186;SDS011;71776;52.042;8.160;2023-08-07T02:45:05;8.48;;;4.28;;
82186;SDS011;71776;52.042;8.160;2023-08-07T02:47:32;7.13;;;4.28;;
82186;SDS011;71776;52.042;8.160;2023-08-07T02:49:58;6.90;;;4.05;;
82186;SDS011;71776;52.042;8.160;2023-08-07T02:52:23;7.85;;;3.80;;
82186;SDS011;71776;52.042;8.160;2023-08-07T02:54:50;5.47;;;4.10;;
82186;SDS011;71776;52.042;8.160;2023-08-07T02:57:15;7.82;;;4.43;;
82186;SDS011;71776;52.042;8.160;2023-08-07T02:59:41;6.32;;;4.50;;
82186;SDS011;71776;52.042;8.160;2023-08-07T03:02:06;8.32;;;4.45;;
82186;SDS011;71776;52.042;8.160;2023-08-07T03:04:33;5.20;;;4.22;;
82186;SDS011;71776;52.042;8.160;2023-08-07T03:06:59;8.00;;;4.88;;
82186;SDS011;71776;52.042;8.160;2023-08-07T03:09:25;8.70;;;4.78;;
82186;SDS011;71776;52.042;8.160;2023-08-07T03:11:50;7.25;;;4.90;;
82186;SDS011;71776;52.042;8.160;2023-08-07T03:14:16;6.40;;;5.30;;
82186;SDS011;71776;52.042;8.160;2023-08-07T03:16:41;6.35;;;5.07;;
82186;SDS011;71776;52.042;8.160;2023-08-07T03:19:07;5.53;;;4.97;;
82186;SDS011;71776;52.042;8.160;2023-08-07T03:21:34;5.80;;;4.75;;
82186;SDS011;71776;52.042;8.160;2023-08-07T03:23:59;10.40;;;5.30;;
82186;SDS011;71776;52.042;8.160;2023-08-07T03:26:25;5.85;;;4.50;;
82186;SDS011;71776;52.042;8.160;2023-08-07T03:28:50;8.68;;;5.32;;
82186;SDS011;71776;52.042;8.160;2023-08-07T03:31:16;6.63;;;4.90;;
82186;SDS011;71776;52.042;8.160;2023-08-07T03:33:45;5.25;;;4.80;;
82186;SDS011;71776;52.042;8.160;2023-08-07T03:36:11;4.45;;;4.05;;
82186;SDS011;71776;52.042;8.160;2023-08-07T03:38:38;6.90;;;4.90;;
82186;SDS011;71776;52.042;8.160;2023-08-07T03:41:03;5.50;;;4.65;;
82186;SDS011;71776;52.042;8.160;2023-08-07T03:43:30;5.45;;;4.82;;
82186;SDS011;71776;52.042;8.160;2023-08-07T03:45:55;7.63;;;4.70;;
82186;SDS011;71776;52.042;8.160;2023-08-07T03:48:21;5.85;;;4.43;;
82186;SDS011;71776;52.042;8.160;2023-08-07T03:50:46;5.30;;;4.35;;
82186;SDS011;71776;52.042;8.160;2023-08-07T03:53:12;7.55;;;4.80;;
82186;SDS011;71776;52.042;8.160;2023-08-07T03:55:39;4.65;;;4.25;;
82186;SDS011;71776;52.042;8.160;2023-08-07T03:58:05;4.70;;;4.30;;
82186;SDS011;71776;52.042;8.160;2023-08-07T04:00:30;5.18;;;4.30;;
82186;SDS011;71776;52.042;8.160;2023-08-07T04:02:56;4.95;;;4.55;;
82186;SDS011;71776;52.042;8.160;2023-08-07T04:05:21;5.75;;;5.15;;
82186;SDS011;71776;52.042;8.160;2023-08-07T04:07:47;6.38;;;4.88;;
82186;SDS011;71776;52.042;8.160;2023-08-07T04:10:12;5.18;;;4.68;;
82186;SDS011;71776;52.042;8.160;2023-08-07T04:12:39;7.50;;;4.88;;
82186;SDS011;71776;52.042;8.160;2023-08-07T04:15:05;4.72;;;4.32;;
82186;SDS011;71776;52.042;8.160;2023-08-07T04:17:31;7.03;;;5.30;;
82186;SDS011;71776;52.042;8.160;2023-08-07T04:19:57;4.97;;;4.35;;
82186;SDS011;71776;52.042;8.160;2023-08-07T04:22:22;5.88;;;4.82;;
82186;SDS011;71776;52.042;8.160;2023-08-07T04:24:48;4.70;;;4.30;;
82186;SDS011;71776;52.042;8.160;2023-08-07T04:27:13;6.93;;;4.75;;
82186;SDS011;71776;52.042;8.160;2023-08-07T04:29:40;7.50;;;4.65;;
82186;SDS011;71776;52.042;8.160;2023-08-07T04:32:06;5.75;;;5.18;;
82186;SDS011;71776;52.042;8.160;2023-08-07T04:34:32;5.70;;;5.07;;
82186;SDS011;71776;52.042;8.160;2023-08-07T04:36:57;9.27;;;4.90;;
82186;SDS011;71776;52.042;8.160;2023-08-07T04:39:23;5.25;;;4.85;;
82186;SDS011;71776;52.042;8.160;2023-08-07T04:41:48;6.03;;;4.82;;
82186;SDS011;71776;52.042;8.160;2023-08-07T04:44:14;6.63;;;4.40;;
82186;SDS011;71776;52.042;8.160;2023-08-07T04:46:41;6.03;;;4.47;;
82186;SDS011;71776;52.042;8.160;2023-08-07T04:49:06;6.68;;;4.15;;
82186;SDS011;71776;52.042;8.160;2023-08-07T04:51:32;4.50;;;4.10;;
82186;SDS011;71776;52.042;8.160;2023-08-07T04:53:57;3.80;;;3.50;;
82186;SDS011;71776;52.042;8.160;2023-08-07T04:56:23;3.50;;;3.20;;
82186;SDS011;71776;52.042;8.160;2023-08-07T04:58:48;4.10;;;3.55;;
82186;SDS011;71776;52.042;8.160;2023-08-07T05:01:14;3.88;;;3.30;;
82186;SDS011;71776;52.042;8.160;2023-08-07T05:03:41;5.13;;;3.15;;
82186;SDS011;71776;52.042;8.160;2023-08-07T05:06:06;4.55;;;2.70;;
82186;SDS011;71776;52.042;8.160;2023-08-07T05:08:32;4.40;;;2.60;;
82186;SDS011;71776;52.042;8.160;2023-08-07T05:10:57;4.65;;;3.03;;
82186;SDS011;71776;52.042;8.160;2023-08-07T05:13:23;2.53;;;2.33;;
82186;SDS011;71776;52.042;8.160;2023-08-07T05:15:48;4.30;;;2.30;;
82186;SDS011;71776;52.042;8.160;2023-08-07T05:18:14;4.20;;;2.42;;
82186;SDS011;71776;52.042;8.160;2023-08-07T05:20:42;4.63;;;2.38;;
82186;SDS011;71776;52.042;8.160;2023-08-07T05:23:07;2.30;;;2.10;;
82186;SDS011;71776;52.042;8.160;2023-08-07T05:25:33;3.67;;;2.20;;
82186;SDS011;71776;52.042;8.160;2023-08-07T05:27:59;3.47;;;1.80;;
82186;SDS011;71776;52.042;8.160;2023-08-07T05:30:24;3.45;;;1.90;;
82186;SDS011;71776;52.042;8.160;2023-08-07T05:32:50;4.28;;;2.35;;
82186;SDS011;71776;52.042;8.160;2023-08-07T05:35:15;2.72;;;1.65;;
82186;SDS011;71776;52.042;8.160;2023-08-07T05:37:42;4.07;;;1.92;;
82186;SDS011;71776;52.042;8.160;2023-08-07T05:40:08;2.42;;;1.80;;
82186;SDS011;71776;52.042;8.160;2023-08-07T05:42:33;2.10;;;1.48;;
82186;SDS011;71776;52.042;8.160;2023-08-07T05:44:59;3.28;;;1.73;;
82186;SDS011;71776;52.042;8.160;2023-08-07T05:47:24;2.35;;;2.00;;
82186;SDS011;71776;52.042;8.160;2023-08-07T05:49:50;4.68;;;2.15;;
82186;SDS011;71776;52.042;8.160;2023-08-07T05:52:17;2.67;;;1.92;;
82186;SDS011;71776;52.042;8.160;2023-08-07T05:54:44;3.25;;;1.67;;
82186;SDS011;71776;52.042;8.160;2023-08-07T05:57:10;3.47;;;1.80;;
82186;SDS011;71776;52.042;8.160;2023-08-07T05:59:35;2.63;;;1.77;;
82186;SDS011;71776;52.042;8.160;2023-08-07T06:02:02;4.15;;;1.20;;
82186;SDS011;71776;52.042;8.160;2023-08-07T06:04:28;3.67;;;1.98;;
82186;SDS011;71776;52.042;8.160;2023-08-07T06:06:53;3.50;;;1.50;;
82186;SDS011;71776;52.042;8.160;2023-08-07T06:09:19;1.85;;;1.20;;
82186;SDS011;71776;52.042;8.160;2023-08-07T06:11:46;1.75;;;1.52;;
82186;SDS011;71776;52.042;8.160;2023-08-07T06:14:11;2.05;;;1.45;;
82186;SDS011;71776;52.042;8.160;2023-08-07T06:16:37;3.55;;;1.50;;
82186;SDS011;71776;52.042;8.160;2023-08-07T06:19:02;1.33;;;1.20;;
82186;SDS011;71776;52.042;8.160;2023-08-07T06:21:28;1.48;;;1.38;;
82186;SDS011;71776;52.042;8.160;2023-08-07T06:23:54;2.38;;;1.27;;
82186;SDS011;71776;52.042;8.160;2023-08-07T06:26:20;2.25;;;1.40;;
82186;SDS011;71776;52.042;8.160;2023-08-07T06:28:46;3.10;;;1.02;;
82186;SDS011;71776;52.042;8.160;2023-08-07T06:31:12;2.55;;;2.03;;
82186;SDS011;71776;52.042;8.160;2023-08-07T06:33:38;1.67;;;1.40;;
82186;SDS011;71776;52.042;8.160;2023-08-07T06:36:04;2.35;;;1.55;;
82186;SDS011;71776;52.042;8.160;2023-08-07T06:38:30;2.25;;;1.30;;
82186;SDS011;71776;52.042;8.160;2023-08-07T06:40:56;2.67;;;1.65;;
82186;SDS011;71776;52.042;8.160;2023-08-07T06:43:22;1.75;;;1.20;;
82186;SDS011;71776;52.042;8.160;2023-08-07T06:45:49;5.25;;;1.92;;
82186;SDS011;71776;52.042;8.160;2023-08-07T06:48:15;4.00;;;1.80;;
82186;SDS011;71776;52.042;8.160;2023-08-07T06:50:40;5.55;;;2.42;;
82186;SDS011;71776;52.042;8.160;2023-08-07T06:53:06;2.97;;;2.10;;
82186;SDS011;71776;52.042;8.160;2023-08-07T06:55:32;5.40;;;1.98;;
82186;SDS011;71776;52.042;8.160;2023-08-07T06:57:57;2.22;;;2.00;;
82186;SDS011;71776;52.042;8.160;2023-08-07T07:00:23;4.18;;;1.80;;
82186;SDS011;71776;52.042;8.160;2023-08-07T07:02:50;4.40;;;1.98;;
82186;SDS011;71776;52.042;8.160;2023-08-07T07:05:15;3.63;;;1.77;;
82186;SDS011;71776;52.042;8.160;2023-08-07T07:07:41;4.93;;;1.95;;
82186;SDS011;71776;52.042;8.160;2023-08-07T07:10:07;2.15;;;1.70;;
82186;SDS011;71776;52.042;8.160;2023-08-07T07:12:33;3.55;;;2.05;;
82186;SDS011;71776;52.042;8.160;2023-08-07T07:14:58;5.30;;;1.60;;
82186;SDS011;71776;52.042;8.160;2023-08-07T07:17:25;4.40;;;2.40;;
82186;SDS011;71776;52.042;8.160;2023-08-07T07:19:51;2.95;;;1.75;;
82186;SDS011;71776;52.042;8.160;2023-08-07T07:22:17;5.50;;;2.25;;
82186;SDS011;71776;52.042;8.160;2023-08-07T07:24:42;4.18;;;2.05;;
82186;SDS011;71776;52.042;8.160;2023-08-07T07:27:08;3.58;;;2.05;;
82186;SDS011;71776;52.042;8.160;2023-08-07T07:29:34;5.05;;;2.17;;
82186;SDS011;71776;52.042;8.160;2023-08-07T07:31:59;3.90;;;2.10;;
82186;SDS011;71776;52.042;8.160;2023-08-07T07:34:25;5.80;;;2.65;;
82186;SDS011;71776;52.042;8.160;2023-08-07T07:36:52;2.22;;;2.03;;
82186;SDS011;71776;52.042;8.160;2023-08-07T07:39:17;4.20;;;2.10;;
82186;SDS011;71776;52.042;8.160;2023-08-07T07:41:43;3.83;;;2.28;;
82186;SDS011;71776;52.042;8.160;2023-08-07T07:44:08;7.70;;;2.40;;
82186;SDS011;71776;52.042;8.160;2023-08-07T07:46:34;9.13;;;2.08;;
82186;SDS011;71776;52.042;8.160;2023-08-07T07:48:59;4.90;;;2.03;;
82186;SDS011;71776;52.042;8.160;2023-08-07T07:51:25;2.67;;;2.03;;
82186;SDS011;71776;52.042;8.160;2023-08-07T07:53:52;3.85;;;1.98;;
82186;SDS011;71776;52.042;8.160;2023-08-07T07:56:17;6.45;;;1.90;;
82186;SDS011;71776;52.042;8.160;2023-08-07T07:58:43;4.43;;;1.95;;
82186;SDS011;71776;52.042;8.160;2023-08-07T08:01:08;3.33;;;1.90;;
82186;SDS011;71776;52.042;8.160;2023-08-07T08:03:34;4.50;;;2.38;;
82186;SDS011;71776;52.042;8.160;2023-08-07T08:05:59;2.17;;;1.85;;
82186;SDS011;71776;52.042;8.160;2023-08-07T08:08:25;4.28;;;1.85;;
82186;SDS011;71776;52.042;8.160;2023-08-07T08:10:52;5.13;;;1.73;;
82186;SDS011;71776;52.042;8.160;2023-08-07T08:13:18;2.50;;;1.85;;
82186;SDS011;71776;52.042;8.160;2023-08-07T08:15:44;2.20;;;2.00;;
82186;SDS011;71776;52.042;8.160;2023-08-07T08:18:10;4.85;;;1.63;;
82186;SDS011;71776;52.042;8.160;2023-08-07T08:20:36;2.17;;;1.90;;
82186;SDS011;71776;52.042;8.160;2023-08-07T08:23:01;6.22;;;1.85;;
82186;SDS011;71776;52.042;8.160;2023-08-07T08:25:27;4.38;;;2.22;;
82186;SDS011;71776;52.042;8.160;2023-08-07T08:27:54;7.07;;;2.30;;
82186;SDS011;71776;52.042;8.160;2023-08-07T08:30:19;10.48;;;2.30;;
82186;SDS011;71776;52.042;8.160;2023-08-07T08:32:45;4.72;;;3.10;;
82186;SDS011;71776;52.042;8.160;2023-08-07T08:35:10;7.00;;;2.00;;
82186;SDS011;71776;52.042;8.160;2023-08-07T08:37:36;5.15;;;2.40;;
82186;SDS011;71776;52.042;8.160;2023-08-07T08:40:02;4.55;;;2.13;;
82186;SDS011;71776;52.042;8.160;2023-08-07T08:42:28;3.17;;;2.15;;
82186;SDS011;71776;52.042;8.160;2023-08-07T08:44:56;7.35;;;2.47;;
82186;SDS011;71776;52.042;8.160;2023-08-07T08:47:21;5.53;;;2.40;;
82186;SDS011;71776;52.042;8.160;2023-08-07T08:49:49;7.18;;;2.20;;
82186;SDS011;71776;52.042;8.160;2023-08-07T08:52:19;3.50;;;2.10;;
82186;SDS011;71776;52.042;8.160;2023-08-07T08:54:46;3.30;;;1.98;;
82186;SDS011;71776;52.042;8.160;2023-08-07T08:57:12;4.03;;;1.80;;
82186;SDS011;71776;52.042;8.160;2023-08-07T08:59:38;6.43;;;2.30;;
82186;SDS011;71776;52.042;8.160;2023-08-07T09:02:06;4.97;;;2.90;;
82186;SDS011;71776;52.042;8.160;2023-08-07T09:04:33;7.35;;;2.20;;
82186;SDS011;71776;52.042;8.160;2023-08-07T09:06:58;5.68;;;1.90;;
82186;SDS011;71776;52.042;8.160;2023-08-07T09:09:25;2.90;;;1.77;;
82186;SDS011;71776;52.042;8.160;2023-08-07T09:11:52;4.40;;;1.67;;
82186;SDS011;71776;52.042;8.160;2023-08-07T09:14:20;5.13;;;1.60;;
82186;SDS011;71776;52.042;8.160;2023-08-07T09:16:51;3.92;;;1.70;;
82186;SDS011;71776;52.042;8.160;2023-08-07T09:19:20;8.02;;;1.92;;
82186;SDS011;71776;52.042;8.160;2023-08-07T09:21:45;5.03;;;2.08;;
82186;SDS011;71776;52.042;8.160;2023-08-07T09:24:12;2.75;;;1.58;;
82186;SDS011;71776;52.042;8.160;2023-08-07T09:26:38;2.53;;;1.67;;
82186;SDS011;71776;52.042;8.160;2023-08-07T09:29:07;4.22;;;1.90;;
82186;SDS011;71776;52.042;8.160;2023-08-07T09:31:32;5.55;;;2.42;;
82186;SDS011;71776;52.042;8.160;2023-08-07T09:34:01;4.05;;;1.77;;
82186;SDS011;71776;52.042;8.160;2023-08-07T09:36:30;4.45;;;1.80;;
82186;SDS011;71776;52.042;8.160;2023-08-07T09:38:56;3.45;;;1.90;;
82186;SDS011;71776;52.042;8.160;2023-08-07T09:41:21;4.55;;;1.80;;
82186;SDS011;71776;52.042;8.160;2023-08-07T09:43:47;3.13;;;1.50;;
82186;SDS011;71776;52.042;8.160;2023-08-07T09:46:12;2.58;;;1.77;;
82186;SDS011;71776;52.042;8.160;2023-08-07T09:48:41;4.78;;;1.95;;
82186;SDS011;71776;52.042;8.160;2023-08-07T09:51:07;5.40;;;1.88;;
82186;SDS011;71776;52.042;8.160;2023-08-07T09:53:34;5.10;;;2.00;;
82186;SDS011;71776;52.042;8.160;2023-08-07T09:56:00;4.15;;;2.10;;
82186;SDS011;71776;52.042;8.160;2023-08-07T09:58:26;4.57;;;2.05;;
82186;SDS011;71776;52.042;8.160;2023-08-07T10:00:52;4.80;;;1.85;;
82186;SDS011;71776;52.042;8.160;2023-08-07T10:03:18;4.97;;;2.00;;
82186;SDS011;71776;52.042;8.160;2023-08-07T10:05:44;5.22;;;1.70;;
82186;SDS011;71776;52.042;8.160;2023-08-07T10:08:11;4.22;;;1.60;;
82186;SDS011;71776;52.042;8.160;2023-08-07T10:10:39;3.88;;;2.10;;
82186;SDS011;71776;52.042;8.160;2023-08-07T10:13:05;5.22;;;1.63;;
82186;SDS011;71776;52.042;8.160;2023-08-07T10:15:31;5.93;;;2.47;;
82186;SDS011;71776;52.042;8.160;2023-08-07T10:17:58;3.53;;;1.70;;
82186;SDS011;71776;52.042;8.160;2023-08-07T10:20:23;3.33;;;1.42;;
82186;SDS011;71776;52.042;8.160;2023-08-07T10:22:51;2.42;;;1.00;;
82186;SDS011;71776;52.042;8.160;2023-08-07T10:25:17;3.03;;;1.48;;
82186;SDS011;71776;52.042;8.160;2023-08-07T10:27:48;3.42;;;1.40;;
82186;SDS011;71776;52.042;8.160;2023-08-07T10:30:16;3.45;;;1.70;;
82186;SDS011;71776;52.042;8.160;2023-08-07T10:32:44;3.10;;;1.77;;
82186;SDS011;71776;52.042;8.160;2023-08-07T10:35:10;5.38;;;1.75;;
82186;SDS011;71776;52.042;8.160;2023-08-07T10:37:50;4.82;;;1.58;;
82186;SDS011;71776;52.042;8.160;2023-08-07T10:40:16;2.53;;;1.50;;
82186;SDS011;71776;52.042;8.160;2023-08-07T10:42:51;4.20;;;1.90;;
82186;SDS011;71776;52.042;8.160;2023-08-07T10:45:17;3.22;;;1.92;;
82186;SDS011;71776;52.042;8.160;2023-08-07T10:47:43;2.42;;;1.77;;
82186;SDS011;71776;52.042;8.160;2023-08-07T10:50:09;3.53;;;2.00;;
82186;SDS011;71776;52.042;8.160;2023-08-07T10:52:35;7.00;;;2.25;;
82186;SDS011;71776;52.042;8.160;2023-08-07T10:55:12;3.50;;;2.10;;
82186;SDS011;71776;52.042;8.160;2023-08-07T10:57:39;3.15;;;1.85;;
82186;SDS011;71776;52.042;8.160;2023-08-07T11:00:07;7.72;;;2.10;;
82186;SDS011;71776;52.042;8.160;2023-08-07T11:02:33;5.03;;;2.97;;
82186;SDS011;71776;52.042;8.160;2023-08-07T11:05:03;4.10;;;2.10;;
82186;SDS011;71776;52.042;8.160;2023-08-07T11:07:29;3.83;;;2.30;;
82186;SDS011;71776;52.042;8.160;2023-08-07T11:09:56;6.80;;;2.40;;
82186;SDS011;71776;52.042;8.160;2023-08-07T11:12:24;8.18;;;2.55;;
82186;SDS011;71776;52.042;8.160;2023-08-07T11:14:50;5.32;;;2.80;;
82186;SDS011;71776;52.042;8.160;2023-08-07T11:17:17;4.32;;;2.67;;
82186;SDS011;71776;52.042;8.160;2023-08-07T11:19:42;6.45;;;2.50;;
82186;SDS011;71776;52.042;8.160;2023-08-07T11:22:08;4.63;;;2.35;;
82186;SDS011;71776;52.042;8.160;2023-08-07T11:24:34;6.97;;;2.50;;
82186;SDS011;71776;52.042;8.160;2023-08-07T11:26:59;6.75;;;2.47;;
82186;SDS011;71776;52.042;8.160;2023-08-07T11:29:25;5.32;;;2.30;;
82186;SDS011;71776;52.042;8.160;2023-08-07T11:31:50;6.50;;;2.95;;
82186;SDS011;71776;52.042;8.160;2023-08-07T11:34:18;8.43;;;2.30;;
82186;SDS011;71776;52.042;8.160;2023-08-07T11:36:43;5.63;;;2.17;;
82186;SDS011;71776;52.042;8.160;2023-08-07T11:39:09;4.18;;;2.25;;
82186;SDS011;71776;52.042;8.160;2023-08-07T11:41:35;6.30;;;2.33;;
82186;SDS011;71776;52.042;8.160;2023-08-07T11:44:00;5.40;;;2.20;;
82186;SDS011;71776;52.042;8.160;2023-08-07T11:46:26;6.18;;;3.03;;
82186;SDS011;71776;52.042;8.160;2023-08-07T11:48:52;3.80;;;2.40;;
82186;SDS011;71776;52.042;8.160;2023-08-07T11:51:19;6.00;;;2.38;;
82186;SDS011;71776;52.042;8.160;2023-08-07T11:53:45;3.17;;;2.30;;
82186;SDS011;71776;52.042;8.160;2023-08-07T11:56:11;7.70;;;2.78;;
82186;SDS011;71776;52.042;8.160;2023-08-07T11:58:38;6.97;;;2.65;;
82186;SDS011;71776;52.042;8.160;2023-08-07T12:01:05;6.53;;;2.33;;
82186;SDS011;71776;52.042;8.160;2023-08-07T12:03:32;7.25;;;2.20;;
82186;SDS011;71776;52.042;8.160;2023-08-07T12:06:02;5.18;;;2.45;;
82186;SDS011;71776;52.042;8.160;2023-08-07T12:08:32;5.43;;;2.20;;
82186;SDS011;71776;52.042;8.160;2023-08-07T12:11:00;3.40;;;2.03;;
82186;SDS011;71776;52.042;8.160;2023-08-07T12:13:26;4.85;;;2.38;;
82186;SDS011;71776;52.042;8.160;2023-08-07T12:15:53;6.72;;;2.00;;
82186;SDS011;71776;52.042;8.160;2023-08-07T12:18:19;5.75;;;2.13;;
82186;SDS011;71776;52.042;8.160;2023-08-07T12:20:44;5.40;;;2.35;;
82186;SDS011;71776;52.042;8.160;2023-08-07T12:23:11;4.13;;;1.98;;
82186;SDS011;71776;52.042;8.160;2023-08-07T12:25:40;6.13;;;2.47;;
82186;SDS011;71776;52.042;8.160;2023-08-07T12:28:05;3.65;;;2.15;;
82186;SDS011;71776;52.042;8.160;2023-08-07T12:30:33;3.72;;;1.95;;
82186;SDS011;71776;52.042;8.160;2023-08-07T12:32:59;3.10;;;1.95;;
82186;SDS011;71776;52.042;8.160;2023-08-07T12:35:25;8.27;;;2.03;;
82186;SDS011;71776;52.042;8.160;2023-08-07T12:37:50;2.90;;;1.90;;
82186;SDS011;71776;52.042;8.160;2023-08-07T12:40:16;5.05;;;1.92;;
82186;SDS011;71776;52.042;8.160;2023-08-07T12:42:43;4.70;;;1.77;;
82186;SDS011;71776;52.042;8.160;2023-08-07T12:45:09;5.03;;;2.03;;
82186;SDS011;71776;52.042;8.160;2023-08-07T12:47:35;4.32;;;2.15;;
82186;SDS011;71776;52.042;8.160;2023-08-07T12:50:00;4.72;;;1.83;;
82186;SDS011;71776;52.042;8.160;2023-08-07T12:52:26;2.80;;;1.42;;
82186;SDS011;71776;52.042;8.160;2023-08-07T12:54:51;5.40;;;1.80;;
82186;SDS011;71776;52.042;8.160;2023-08-07T12:57:17;4.72;;;1.92;;
82186;SDS011;71776;52.042;8.160;2023-08-07T12:59:44;5.95;;;1.95;;
82186;SDS011;71776;52.042;8.160;2023-08-07T13:02:09;3.65;;;1.55;;
82186;SDS011;71776;52.042;8.160;2023-08-07T13:04:35;5.03;;;2.08;;
82186;SDS011;71776;52.042;8.160;2023-08-07T13:07:00;3.00;;;1.80;;
82186;SDS011;71776;52.042;8.160;2023-08-07T13:09:26;4.10;;;1.90;;
82186;SDS011;71776;52.042;8.160;2023-08-07T13:11:51;3.35;;;1.80;;
82186;SDS011;71776;52.042;8.160;2023-08-07T13:14:17;4.35;;;2.05;;
82186;SDS011;71776;52.042;8.160;2023-08-07T13:16:44;5.55;;;3.28;;
82186;SDS011;71776;52.042;8.160;2023-08-07T13:19:09;4.82;;;1.85;;
82186;SDS011;71776;52.042;8.160;2023-08-07T13:21:35;6.30;;;2.28;;
82186;SDS011;71776;52.042;8.160;2023-08-07T13:24:00;2.53;;;2.00;;
82186;SDS011;71776;52.042;8.160;2023-08-07T13:26:26;4.00;;;1.98;;
82186;SDS011;71776;52.042;8.160;2023-08-07T13:28:51;4.97;;;2.30;;
82186;SDS011;71776;52.042;8.160;2023-08-07T13:31:17;4.35;;;2.15;;
82186;SDS011;71776;52.042;8.160;2023-08-07T13:33:44;6.53;;;2.28;;
82186;SDS011;71776;52.042;8.160;2023-08-07T13:36:09;2.70;;;1.77;;
82186;SDS011;71776;52.042;8.160;2023-08-07T13:38:35;4.82;;;1.90;;
82186;SDS011;71776;52.042;8.160;2023-08-07T13:41:00;4.00;;;2.10;;
82186;SDS011;71776;52.042;8.160;2023-08-07T13:43:26;5.47;;;2.05;;
82186;SDS011;71776;52.042;8.160;2023-08-07T13:45:51;4.47;;;1.80;;
82186;SDS011;71776;52.042;8.160;2023-08-07T13:48:17;4.38;;;2.38;;
82186;SDS011;71776;52.042;8.160;2023-08-07T13:50:44;5.15;;;1.80;;
82186;SDS011;71776;52.042;8.160;2023-08-07T13:53:10;3.17;;;1.80;;
82186;SDS011;71776;52.042;8.160;2023-08-07T13:55:36;5.32;;;2.30;;
82186;SDS011;71776;52.042;8.160;2023-08-07T13:58:01;5.22;;;2.20;;
82186;SDS011;71776;52.042;8.160;2023-08-07T14:00:27;5.97;;;2.00;;
82186;SDS011;71776;52.042;8.160;2023-08-07T14:02:52;4.32;;;2.05;;
82186;SDS011;71776;52.042;8.160;2023-08-07T14:05:18;7.18;;;2.45;;
82186;SDS011;71776;52.042;8.160;2023-08-07T14:07:45;2.15;;;1.42;;
82186;SDS011;71776;52.042;8.160;2023-08-07T14:10:10;13.23;;;3.58;;
82186;SDS011;71776;52.042;8.160;2023-08-07T14:12:36;1.50;;;1.40;;
82186;SDS011;71776;52.042;8.160;2023-08-07T14:15:02;5.93;;;2.28;;
82186;SDS011;71776;52.042;8.160;2023-08-07T14:17:27;4.30;;;2.05;;
82186;SDS011;71776;52.042;8.160;2023-08-07T14:19:53;2.85;;;1.88;;
82186;SDS011;71776;52.042;8.160;2023-08-07T14:22:18;2.20;;;1.60;;
82186;SDS011;71776;52.042;8.160;2023-08-07T14:24:45;2.38;;;1.48;;
82186;SDS011;71776;52.042;8.160;2023-08-07T14:27:11;3.13;;;1.65;;
82186;SDS011;71776;52.042;8.160;2023-08-07T14:29:36;3.72;;;2.08;;
82186;SDS011;71776;52.042;8.160;2023-08-07T14:32:02;2.13;;;1.58;;
82186;SDS011;71776;52.042;8.160;2023-08-07T14:34:28;4.70;;;2.63;;
82186;SDS011;71776;52.042;8.160;2023-08-07T14:36:54;4.05;;;1.67;;
82186;SDS011;71776;52.042;8.160;2023-08-07T14:39:19;2.80;;;1.75;;
82186;SDS011;71776;52.042;8.160;2023-08-07T14:41:46;2.22;;;1.80;;
82186;SDS011;71776;52.042;8.160;2023-08-07T14:44:12;4.95;;;2.05;;